createdAt,value
2023-03-30T00:02:10.874Z,1.30
2023-03-30T00:04:43.092Z,1.70
2023-03-30T00:07:13.226Z,1.60
2023-03-30T00:09:43.446Z,1.50
2023-03-30T00:12:13.563Z,1.90
2023-03-30T00:14:42.757Z,1.73
2023-03-30T00:17:11.244Z,1.97
2023-03-30T00:19:39.500Z,2.00
2023-03-30T00:22:09.012Z,1.60
2023-03-30T00:24:38.660Z,2.33
2023-03-30T00:27:06.952Z,2.57
2023-03-30T00:29:35.317Z,1.97
2023-03-30T00:32:03.705Z,1.90
2023-03-30T00:34:31.985Z,2.43
2023-03-30T00:37:00.260Z,1.77
2023-03-30T00:39:28.483Z,2.37
2023-03-30T00:41:58.299Z,1.83
2023-03-30T00:45:07.867Z,1.70
2023-03-30T00:47:39.559Z,2.00
2023-03-30T00:50:09.713Z,2.33
2023-03-30T00:52:38.340Z,2.13
2023-03-30T00:55:09.056Z,1.80
2023-03-30T00:57:41.979Z,1.63
2023-03-30T01:00:11.984Z,1.90
2023-03-30T01:02:45.984Z,2.33
2023-03-30T01:05:14.522Z,2.03
2023-03-30T01:07:46.384Z,2.27
2023-03-30T01:10:14.710Z,2.03
2023-03-30T01:12:45.452Z,2.20
2023-03-30T01:15:16.253Z,2.53
2023-03-30T01:18:00.788Z,2.40
2023-03-30T01:21:03.405Z,2.00
2023-03-30T01:24:06.180Z,2.13
2023-03-30T01:26:54.524Z,2.00
2023-03-30T01:29:38.600Z,2.50
2023-03-30T01:32:57.604Z,2.20
2023-03-30T01:35:58.865Z,2.53
2023-03-30T01:39:01.919Z,2.20
2023-03-30T01:41:35.075Z,2.00
2023-03-30T01:44:09.757Z,2.03
2023-03-30T01:46:42.138Z,1.90
2023-03-30T01:49:17.208Z,2.40
2023-03-30T01:51:49.993Z,2.00
2023-03-30T01:54:23.584Z,2.43
2023-03-30T01:56:56.939Z,2.20
2023-03-30T01:59:29.958Z,2.20
2023-03-30T02:02:04.029Z,2.10
2023-03-30T02:04:38.844Z,1.77
2023-03-30T02:07:11.595Z,1.97
2023-03-30T02:09:43.286Z,2.30
2023-03-30T02:12:12.914Z,2.30
2023-03-30T02:14:42.922Z,2.00
2023-03-30T02:17:17.167Z,1.77
2023-03-30T02:19:46.243Z,2.23
2023-03-30T02:22:16.224Z,2.40
2023-03-30T02:24:48.095Z,1.97
2023-03-30T02:27:19.336Z,2.43
2023-03-30T02:29:49.772Z,2.30
2023-03-30T02:32:21.037Z,1.90
2023-03-30T02:35:03.105Z,2.30
2023-03-30T02:37:47.770Z,2.00
2023-03-30T02:40:33.089Z,2.23
2023-03-30T02:43:23.654Z,2.20
2023-03-30T02:45:56.113Z,1.63
2023-03-30T02:48:38.476Z,2.30
2023-03-30T02:51:23.401Z,2.10
2023-03-30T02:54:28.951Z,2.23
2023-03-30T02:57:34.575Z,2.10
2023-03-30T03:00:28.915Z,2.00
2023-03-30T03:03:03.465Z,2.10
2023-03-30T03:05:34.040Z,1.90
2023-03-30T03:08:16.573Z,1.93
2023-03-30T03:10:47.137Z,2.00
2023-03-30T03:13:20.617Z,2.17
2023-03-30T03:15:49.888Z,1.80
2023-03-30T03:18:18.550Z,1.93
2023-03-30T03:20:46.936Z,2.13
2023-03-30T03:23:15.452Z,2.00
2023-03-30T03:25:50.787Z,1.80
2023-03-30T03:28:22.600Z,2.20
2023-03-30T03:30:54.516Z,1.80
2023-03-30T03:33:25.834Z,2.13
2023-03-30T03:36:05.762Z,2.23
2023-03-30T03:38:37.360Z,2.43
2023-03-30T03:41:07.447Z,2.73
2023-03-30T03:43:37.822Z,2.20
2023-03-30T03:46:06.321Z,3.00
2023-03-30T03:48:34.847Z,2.30
2023-03-30T03:51:03.404Z,2.20
2023-03-30T03:53:35.245Z,1.97
2023-03-30T03:56:08.223Z,2.10
2023-03-30T03:58:38.827Z,2.30
2023-03-30T04:01:08.496Z,2.00
2023-03-30T04:03:37.064Z,1.93
2023-03-30T04:06:06.734Z,1.93
2023-03-30T04:08:35.002Z,2.23
2023-03-30T04:11:20.237Z,2.30
2023-03-30T04:14:04.941Z,2.00
2023-03-30T04:16:45.132Z,2.00
2023-03-30T04:19:33.400Z,2.80
2023-03-30T04:22:25.659Z,2.20
2023-03-30T04:25:15.124Z,2.63
2023-03-30T04:28:05.322Z,2.40
2023-03-30T04:31:00.368Z,2.53
2023-03-30T04:33:51.814Z,2.63
2023-03-30T04:36:39.012Z,2.63
2023-03-30T04:39:30.105Z,2.70
2023-03-30T04:42:20.249Z,3.27
2023-03-30T04:45:10.162Z,3.00
2023-03-30T04:47:43.077Z,2.70
2023-03-30T04:50:41.302Z,3.03
2023-03-30T04:53:12.466Z,3.20
2023-03-30T04:55:50.305Z,2.60
2023-03-30T04:58:34.014Z,3.10
2023-03-30T05:01:21.521Z,2.37
2023-03-30T05:04:20.462Z,2.30
2023-03-30T05:06:49.737Z,2.87
2023-03-30T05:09:47.322Z,3.20
2023-03-30T05:12:33.899Z,3.60
2023-03-30T05:15:25.371Z,3.67
2023-03-30T05:18:11.683Z,3.70
2023-03-30T05:21:00.026Z,3.50
2023-03-30T05:23:46.501Z,4.00
2023-03-30T05:26:32.674Z,3.20
2023-03-30T05:29:22.128Z,3.30
2023-03-30T05:32:17.817Z,3.93
2023-03-30T05:35:05.673Z,4.03
2023-03-30T05:37:44.408Z,4.23
2023-03-30T05:40:38.887Z,3.90
2023-03-30T05:43:08.299Z,4.13
2023-03-30T05:45:56.235Z,3.13
2023-03-30T05:48:53.580Z,4.27
2023-03-30T05:51:29.336Z,3.13
2023-03-30T05:54:08.284Z,3.63
2023-03-30T05:56:55.372Z,3.70
2023-03-30T05:59:37.268Z,4.10
2023-03-30T06:02:28.894Z,3.50
2023-03-30T06:05:04.136Z,3.10
2023-03-30T06:07:32.692Z,2.87
2023-03-30T06:10:02.440Z,3.67
2023-03-30T06:12:32.080Z,3.30
2023-03-30T06:15:03.009Z,3.83
2023-03-30T06:17:52.152Z,3.37
2023-03-30T06:20:21.586Z,3.07
2023-03-30T06:22:51.458Z,3.43
2023-03-30T06:25:24.627Z,3.00
2023-03-30T06:27:54.350Z,3.43
2023-03-30T06:30:22.866Z,3.17
2023-03-30T06:32:54.650Z,3.23
2023-03-30T06:35:26.790Z,4.17
2023-03-30T06:37:56.969Z,3.27
2023-03-30T06:40:27.043Z,4.07
2023-03-30T06:42:57.067Z,4.30
2023-03-30T06:45:40.803Z,4.00
2023-03-30T06:48:09.283Z,4.10
2023-03-30T06:50:40.755Z,3.67
2023-03-30T06:53:20.453Z,3.97
2023-03-30T06:55:54.424Z,3.70
2023-03-30T06:58:24.121Z,4.17
2023-03-30T07:00:52.797Z,4.03
2023-03-30T07:03:41.279Z,4.47
2023-03-30T07:06:24.336Z,3.53
2023-03-30T07:08:52.641Z,4.80
2023-03-30T07:11:27.285Z,3.43
2023-03-30T07:13:58.509Z,4.23
2023-03-30T07:16:27.105Z,3.27
2023-03-30T07:18:55.402Z,3.87
2023-03-30T07:21:24.381Z,3.93
2023-03-30T07:23:52.709Z,4.13
2023-03-30T07:26:32.576Z,3.63
2023-03-30T07:29:07.440Z,4.27
2023-03-30T07:31:38.196Z,3.73
2023-03-30T07:34:09.382Z,3.87
2023-03-30T07:36:42.425Z,4.33
2023-03-30T07:39:12.702Z,3.83
2023-03-30T07:41:45.654Z,3.77
2023-03-30T07:44:15.188Z,3.67
2023-03-30T07:46:43.636Z,4.87
2023-03-30T07:49:17.514Z,4.30
2023-03-30T07:51:45.911Z,4.77
2023-03-30T07:54:21.167Z,4.17
2023-03-30T07:57:14.177Z,3.80
2023-03-30T07:59:42.819Z,4.90
2023-03-30T08:02:30.258Z,4.50
2023-03-30T08:05:00.252Z,4.97
2023-03-30T08:07:45.376Z,4.10
2023-03-30T08:10:20.045Z,4.17
2023-03-30T08:12:49.740Z,4.37
2023-03-30T08:15:18.152Z,3.60
2023-03-30T08:17:46.436Z,5.17
2023-03-30T08:20:15.101Z,3.93
2023-03-30T08:22:43.420Z,4.20
2023-03-30T08:25:11.900Z,3.60
2023-03-30T08:27:40.542Z,4.60
2023-03-30T08:30:13.165Z,3.67
2023-03-30T08:32:41.535Z,4.00
2023-03-30T08:35:11.613Z,4.53
2023-03-30T08:37:39.932Z,4.30
2023-03-30T08:40:11.280Z,4.20
2023-03-30T08:42:53.594Z,4.00
2023-03-30T08:45:23.344Z,3.40
2023-03-30T08:47:53.204Z,4.40
2023-03-30T08:50:31.539Z,3.87
2023-03-30T08:53:00.339Z,3.90
2023-03-30T08:55:36.143Z,4.00
2023-03-30T08:58:10.100Z,4.50
2023-03-30T09:00:45.191Z,4.40
2023-03-30T09:03:19.743Z,3.73
2023-03-30T09:05:54.084Z,4.73
2023-03-30T09:08:24.603Z,5.20
2023-03-30T09:10:57.592Z,5.07
2023-03-30T09:13:29.468Z,4.00
2023-03-30T09:16:04.485Z,3.47
2023-03-30T09:18:35.057Z,4.13
2023-03-30T09:21:06.311Z,3.97
2023-03-30T09:23:36.074Z,3.87
2023-03-30T09:26:17.356Z,4.47
2023-03-30T09:28:53.507Z,4.27
2023-03-30T09:31:29.131Z,3.80
2023-03-30T09:34:03.607Z,3.83
2023-03-30T09:36:39.204Z,3.97
2023-03-30T09:39:11.866Z,3.93
2023-03-30T09:41:52.743Z,3.00
2023-03-30T09:44:27.255Z,3.10
2023-03-30T09:47:00.901Z,3.20
2023-03-30T09:49:30.580Z,4.23
2023-03-30T09:52:04.499Z,3.53
2023-03-30T09:54:37.893Z,3.80
2023-03-30T09:57:06.621Z,3.60
2023-03-30T09:59:36.455Z,4.33
2023-03-30T10:02:20.840Z,3.43
2023-03-30T10:04:58.322Z,3.33
2023-03-30T10:07:29.009Z,3.40
2023-03-30T10:10:00.318Z,3.57
2023-03-30T10:12:30.106Z,3.30
2023-03-30T10:15:01.859Z,3.17
2023-03-30T10:17:32.209Z,3.77
2023-03-30T10:20:27.269Z,3.30
2023-03-30T10:22:57.514Z,2.70
2023-03-30T10:25:29.680Z,3.37
2023-03-30T10:28:03.005Z,3.90
2023-03-30T10:30:33.327Z,2.17
2023-03-30T10:33:04.117Z,2.70
2023-03-30T10:35:36.895Z,3.03
2023-03-30T10:38:07.643Z,2.90
2023-03-30T10:40:37.820Z,2.50
2023-03-30T10:43:12.034Z,2.67
2023-03-30T10:45:45.861Z,2.93
2023-03-30T10:48:29.916Z,3.37
2023-03-30T10:51:08.788Z,3.07
2023-03-30T10:53:45.807Z,3.47
2023-03-30T10:56:26.363Z,3.30
2023-03-30T10:59:18.750Z,3.77
2023-03-30T11:01:58.537Z,3.17
2023-03-30T11:04:35.258Z,3.85
2023-03-30T11:07:06.538Z,3.40
2023-03-30T11:09:41.034Z,2.78
2023-03-30T11:12:15.117Z,3.05
2023-03-30T11:14:50.661Z,4.77
2023-03-30T11:17:23.961Z,3.10
2023-03-30T11:19:56.925Z,4.35
2023-03-30T11:22:34.317Z,3.23
2023-03-30T11:25:05.222Z,3.22
2023-03-30T11:27:36.481Z,3.58
2023-03-30T11:30:12.549Z,4.07
2023-03-30T11:32:45.426Z,3.17
2023-03-30T11:35:20.043Z,3.40
2023-03-30T11:37:54.357Z,3.47
2023-03-30T11:40:27.329Z,3.58
2023-03-30T11:42:56.618Z,3.60
2023-03-30T11:45:44.847Z,4.00
2023-03-30T11:48:49.293Z,3.65
2023-03-30T11:51:31.732Z,3.22
2023-03-30T11:54:08.807Z,3.92
2023-03-30T11:56:40.411Z,3.38
2023-03-30T11:59:17.060Z,3.95
2023-03-30T12:02:06.826Z,3.50
2023-03-30T12:04:45.315Z,3.42
2023-03-30T12:07:26.031Z,3.25
2023-03-30T12:09:57.244Z,3.67
2023-03-30T12:12:33.778Z,2.97
2023-03-30T12:15:11.471Z,3.97
2023-03-30T12:17:48.628Z,4.60
2023-03-30T12:20:33.159Z,3.25
2023-03-30T12:23:12.501Z,4.10
2023-03-30T12:25:55.510Z,3.47
2023-03-30T12:28:35.770Z,3.30
2023-03-30T12:31:16.069Z,3.70
2023-03-30T12:33:49.808Z,3.35
2023-03-30T12:36:34.404Z,3.80
2023-03-30T12:39:06.871Z,3.10
2023-03-30T12:41:43.291Z,3.58
2023-03-30T12:44:36.628Z,3.90
2023-03-30T12:47:18.439Z,3.55
2023-03-30T12:49:59.539Z,3.67
2023-03-30T12:52:39.604Z,3.28
2023-03-30T12:55:28.942Z,3.45
2023-03-30T12:58:08.862Z,2.60
2023-03-30T13:00:55.715Z,2.88
2023-03-30T13:03:38.462Z,2.90
2023-03-30T13:06:21.978Z,3.08
2023-03-30T13:08:55.622Z,2.67
2023-03-30T13:11:25.415Z,2.55
2023-03-30T13:13:56.386Z,2.40
2023-03-30T13:17:01.872Z,3.42
2023-03-30T13:19:42.817Z,2.65
2023-03-30T13:22:28.202Z,2.47
2023-03-30T13:24:59.486Z,2.20
2023-03-30T13:27:33.902Z,2.45
2023-03-30T13:30:06.401Z,2.20
2023-03-30T13:32:49.680Z,2.10
2023-03-30T13:35:33.088Z,2.60
2023-03-30T13:38:22.252Z,2.15
2023-03-30T13:41:05.179Z,2.60
2023-03-30T13:43:49.550Z,2.35
2023-03-30T13:46:28.688Z,2.33
2023-03-30T13:49:07.883Z,1.90
2023-03-30T13:51:39.108Z,2.47
2023-03-30T13:54:15.050Z,3.17
2023-03-30T13:56:49.651Z,2.70
2023-03-30T13:59:22.559Z,2.25
2023-03-30T14:01:55.128Z,2.92
2023-03-30T14:04:24.124Z,2.40
2023-03-30T14:06:54.276Z,2.10
2023-03-30T14:09:24.376Z,1.98
2023-03-30T14:11:55.406Z,2.40
2023-03-30T14:14:28.225Z,2.20
2023-03-30T14:16:58.587Z,2.80
2023-03-30T14:19:29.213Z,2.08
2023-03-30T14:22:01.246Z,2.17
2023-03-30T14:24:31.599Z,2.22
2023-03-30T14:27:04.055Z,2.35
2023-03-30T14:29:33.824Z,2.60
2023-03-30T14:32:09.084Z,2.55
2023-03-30T14:34:38.155Z,2.10
2023-03-30T14:37:09.274Z,2.72
2023-03-30T14:39:42.699Z,2.10
2023-03-30T14:42:16.613Z,2.05
2023-03-30T14:44:48.106Z,2.53
2023-03-30T14:47:19.025Z,2.85
2023-03-30T14:49:48.136Z,2.80
2023-03-30T14:52:19.046Z,2.40
2023-03-30T14:55:02.414Z,1.73
2023-03-30T14:57:38.825Z,2.22
2023-03-30T15:00:21.364Z,2.45
2023-03-30T15:02:53.286Z,2.10
2023-03-30T15:05:24.415Z,2.22
2023-03-30T15:07:54.288Z,1.77
2023-03-30T15:10:27.358Z,1.90
2023-03-30T15:12:58.325Z,1.70
2023-03-30T15:15:32.907Z,1.90
2023-03-30T15:18:03.603Z,1.70
2023-03-30T15:20:33.280Z,1.60
2023-03-30T15:23:01.998Z,2.10
2023-03-30T15:25:33.755Z,1.77
2023-03-30T15:28:04.827Z,2.50
2023-03-30T15:30:36.723Z,1.65
2023-03-30T15:33:07.499Z,2.05
2023-03-30T15:35:37.536Z,2.15
2023-03-30T15:38:15.449Z,2.25
2023-03-30T15:40:45.152Z,2.85
2023-03-30T15:43:19.163Z,1.85
2023-03-30T15:45:52.088Z,2.63
2023-03-30T15:48:26.848Z,2.40
2023-03-30T15:51:00.201Z,2.28
2023-03-30T15:53:40.341Z,2.20
2023-03-30T15:56:14.101Z,2.70
2023-03-30T15:58:43.428Z,2.75
2023-03-30T16:01:15.898Z,3.13
2023-03-30T16:03:52.312Z,2.60
2023-03-30T16:06:21.860Z,3.17
2023-03-30T16:08:50.160Z,3.63
2023-03-30T16:11:20.610Z,3.00
2023-03-30T16:13:50.275Z,2.90
2023-03-30T16:16:19.904Z,3.28
2023-03-30T16:18:48.829Z,3.77
2023-03-30T16:21:18.496Z,3.30
2023-03-30T16:23:46.808Z,2.90
2023-03-30T16:26:15.070Z,3.67
2023-03-30T16:28:43.515Z,3.40
2023-03-30T16:31:18.027Z,3.53
2023-03-30T16:33:47.791Z,3.28
2023-03-30T16:36:18.246Z,3.67
2023-03-30T16:38:47.277Z,2.75
2023-03-30T16:41:19.319Z,3.83
2023-03-30T16:43:47.977Z,3.30
2023-03-30T16:46:17.615Z,3.00
2023-03-30T16:48:47.483Z,3.10
2023-03-30T16:51:16.560Z,2.67
2023-03-30T16:53:44.835Z,3.00
2023-03-30T16:56:17.406Z,3.08
2023-03-30T16:58:46.035Z,3.33
2023-03-30T17:01:18.349Z,3.25
2023-03-30T17:03:48.641Z,2.83
2023-03-30T17:06:17.187Z,3.40
2023-03-30T17:08:45.961Z,3.20
2023-03-30T17:11:14.451Z,3.25
2023-03-30T17:13:43.210Z,2.63
2023-03-30T17:16:13.568Z,3.03
2023-03-30T17:18:42.183Z,2.50
2023-03-30T17:21:16.550Z,2.70
2023-03-30T17:23:47.751Z,2.90
2023-03-30T17:26:16.694Z,3.07
2023-03-30T17:28:45.054Z,2.60
2023-03-30T17:31:17.492Z,3.63
2023-03-30T17:33:46.103Z,2.90
2023-03-30T17:36:19.013Z,3.87
2023-03-30T17:38:47.712Z,3.10
2023-03-30T17:41:17.114Z,2.87
2023-03-30T17:43:45.476Z,3.70
2023-03-30T17:46:15.170Z,3.03
2023-03-30T17:48:43.991Z,3.93
2023-03-30T17:51:12.259Z,4.07
2023-03-30T17:53:41.950Z,3.13
2023-03-30T17:56:13.201Z,4.37
2023-03-30T17:58:41.601Z,4.77
2023-03-30T18:01:12.435Z,5.40
2023-03-30T18:03:41.137Z,5.37
2023-03-30T18:06:12.283Z,4.23
2023-03-30T18:08:43.065Z,3.97
2023-03-30T18:11:11.459Z,3.57
2023-03-30T18:13:39.926Z,4.10
2023-03-30T18:16:08.533Z,3.40
2023-03-30T18:18:37.229Z,3.87
2023-03-30T18:21:06.727Z,3.40
2023-03-30T18:23:35.461Z,3.73
2023-03-30T18:26:10.311Z,3.20
2023-03-30T18:28:42.429Z,4.33
2023-03-30T18:31:11.207Z,3.43
2023-03-30T18:33:40.529Z,4.50
2023-03-30T18:36:12.586Z,3.50
2023-03-30T18:38:42.109Z,3.93
2023-03-30T18:41:13.333Z,4.43
2023-03-30T18:43:41.815Z,3.97
2023-03-30T18:46:13.839Z,4.33
2023-03-30T18:48:42.403Z,3.30
2023-03-30T18:51:12.211Z,3.90
2023-03-30T18:53:40.742Z,3.90
2023-03-30T18:56:13.675Z,3.63
2023-03-30T18:58:43.049Z,3.93
2023-03-30T19:01:13.353Z,3.33
2023-03-30T19:03:42.830Z,2.97
2023-03-30T19:06:14.104Z,4.23
2023-03-30T19:08:43.750Z,3.10
2023-03-30T19:11:15.302Z,3.37
2023-03-30T19:13:43.782Z,3.47
2023-03-30T19:16:11.994Z,3.40
2023-03-30T19:18:40.516Z,3.23
2023-03-30T19:21:13.820Z,3.77
2023-03-30T19:23:42.263Z,2.90
2023-03-30T19:26:11.109Z,2.90
2023-03-30T19:28:41.189Z,3.20
2023-03-30T19:31:13.436Z,3.53
2023-03-30T19:33:42.681Z,3.07
2023-03-30T19:36:11.546Z,3.83
2023-03-30T19:38:40.103Z,2.93
2023-03-30T19:41:08.692Z,3.13
2023-03-30T19:43:37.007Z,2.77
2023-03-30T19:46:08.707Z,3.50
2023-03-30T19:48:37.089Z,3.97
2023-03-30T19:51:05.722Z,2.90
2023-03-30T19:53:34.153Z,2.53
2023-03-30T19:56:02.461Z,3.53
2023-03-30T19:58:30.692Z,3.03
2023-03-30T20:00:58.954Z,3.23
2023-03-30T20:03:30.201Z,3.07
2023-03-30T20:05:58.650Z,2.83
2023-03-30T20:08:26.869Z,3.17
2023-03-30T20:10:57.078Z,3.03
2023-03-30T20:13:27.364Z,2.83
2023-03-30T20:15:56.387Z,3.13
2023-03-30T20:18:24.761Z,3.47
2023-03-30T20:20:54.410Z,3.07
2023-03-30T20:23:22.709Z,3.23
2023-03-30T20:25:52.622Z,3.50
2023-03-30T20:28:21.126Z,2.77
2023-03-30T20:30:49.415Z,2.90
2023-03-30T20:33:18.734Z,3.37
2023-03-30T20:35:47.134Z,2.80
2023-03-30T20:38:16.762Z,3.27
2023-03-30T20:40:54.312Z,2.67
2023-03-30T20:43:25.968Z,2.87
2023-03-30T20:46:02.140Z,2.80
2023-03-30T20:48:33.609Z,3.00
2023-03-30T20:51:03.819Z,3.10
2023-03-30T20:53:35.151Z,3.13
2023-03-30T20:56:05.201Z,3.40
2023-03-30T20:58:33.495Z,3.40
2023-03-30T21:01:01.840Z,3.93
2023-03-30T21:03:30.249Z,3.73
2023-03-30T21:06:03.347Z,3.30
2023-03-30T21:08:34.667Z,3.23
2023-03-30T21:11:03.697Z,2.90
2023-03-30T21:13:32.108Z,3.30
2023-03-30T21:16:01.762Z,3.47
2023-03-30T21:18:30.568Z,3.00
2023-03-30T21:20:59.103Z,2.90
2023-03-30T21:23:27.463Z,3.37
2023-03-30T21:25:59.093Z,3.53
2023-03-30T21:28:28.566Z,3.80
2023-03-30T21:30:58.148Z,3.43
2023-03-30T21:33:27.828Z,3.40
2023-03-30T21:35:57.774Z,3.57
2023-03-30T21:38:27.449Z,2.90
2023-03-30T21:40:58.984Z,2.80
2023-03-30T21:43:30.841Z,3.30
2023-03-30T21:46:00.539Z,2.90
2023-03-30T21:48:31.351Z,4.27
2023-03-30T21:51:00.601Z,3.80
2023-03-30T21:53:30.251Z,3.47
2023-03-30T21:56:00.662Z,3.27
2023-03-30T21:58:29.630Z,2.70
2023-03-30T22:01:10.686Z,3.10
2023-03-30T22:03:40.738Z,3.20
2023-03-30T22:06:12.848Z,3.27
2023-03-30T22:08:41.356Z,3.33
2023-03-30T22:11:14.635Z,3.77
2023-03-30T22:13:42.870Z,3.70
2023-03-30T22:16:13.740Z,4.17
2023-03-30T22:18:42.428Z,3.30
2023-03-30T22:21:14.509Z,3.57
2023-03-30T22:23:42.840Z,2.97
2023-03-30T22:26:12.913Z,2.97
2023-03-30T22:28:42.011Z,2.60
2023-03-30T22:31:11.574Z,3.03
2023-03-30T22:33:39.952Z,2.70
2023-03-30T22:36:17.289Z,3.30
2023-03-30T22:38:45.725Z,3.23
2023-03-30T22:41:15.979Z,3.87
2023-03-30T22:43:44.349Z,3.00
2023-03-30T22:46:12.615Z,3.10
2023-03-30T22:48:42.096Z,2.63
2023-03-30T22:51:14.143Z,2.97
2023-03-30T22:53:42.654Z,2.97
2023-03-30T22:56:11.794Z,2.90
2023-03-30T22:58:41.514Z,2.97
2023-03-30T23:01:10.401Z,3.17
2023-03-30T23:03:39.309Z,3.80
2023-03-30T23:06:09.380Z,2.80
2023-03-30T23:08:39.213Z,2.83
2023-03-30T23:11:08.275Z,3.67
2023-03-30T23:13:38.216Z,3.20
2023-03-30T23:16:09.016Z,3.00
2023-03-30T23:18:37.880Z,2.90
2023-03-30T23:21:07.435Z,3.30
2023-03-30T23:23:36.776Z,3.27
2023-03-30T23:26:08.274Z,3.90
2023-03-30T23:28:38.002Z,3.27
2023-03-30T23:31:12.135Z,3.10
2023-03-30T23:33:41.087Z,2.43
2023-03-30T23:36:13.430Z,2.90
2023-03-30T23:38:42.056Z,2.77
2023-03-30T23:41:13.325Z,3.10
2023-03-30T23:43:41.731Z,3.63
2023-03-30T23:46:11.670Z,3.80
2023-03-30T23:48:40.114Z,3.43
2023-03-30T23:51:08.716Z,3.40
2023-03-30T23:53:40.122Z,3.50
2023-03-30T23:56:13.021Z,3.43
2023-03-30T23:58:42.164Z,2.63
